sensor_id;sensor_type;location;lat;lon;timestamp;P1;durP1;ratioP1;P2;durP2;ratioP2
15921;SDS011;8060;50.948;3.146;2022-10-16T06:40:54;8.57;;;2.10;;
15921;SDS011;8060;50.948;3.146;2022-10-16T06:43:23;11.30;;;2.20;;
15921;SDS011;8060;50.948;3.146;2022-10-16T06:45:51;10.30;;;2.40;;
15921;SDS011;8060;50.948;3.146;2022-10-16T06:48:20;6.63;;;2.00;;
15921;SDS011;8060;50.948;3.146;2022-10-16T06:50:56;6.00;;;2.03;;
15921;SDS011;8060;50.948;3.146;2022-10-16T06:53:25;4.90;;;1.83;;
15921;SDS011;8060;50.948;3.146;2022-10-16T06:56:11;9.17;;;2.60;;
15921;SDS011;8060;50.948;3.146;2022-10-16T06:58:41;7.47;;;1.80;;
15921;SDS011;8060;50.948;3.146;2022-10-16T07:01:10;7.00;;;1.57;;
15921;SDS011;8060;50.948;3.146;2022-10-16T07:03:40;7.90;;;1.87;;
15921;SDS011;8060;50.948;3.146;2022-10-16T07:06:10;6.20;;;1.73;;
15921;SDS011;8060;50.948;3.146;2022-10-16T07:08:40;4.57;;;1.60;;
15921;SDS011;8060;50.948;3.146;2022-10-16T07:11:12;5.90;;;1.87;;
15921;SDS011;8060;50.948;3.146;2022-10-16T07:13:42;8.07;;;2.33;;
15921;SDS011;8060;50.948;3.146;2022-10-16T07:16:20;6.80;;;2.50;;
15921;SDS011;8060;50.948;3.146;2022-10-16T07:18:50;8.57;;;3.07;;
15921;SDS011;8060;50.948;3.146;2022-10-16T07:21:24;10.97;;;4.20;;
15921;SDS011;8060;50.948;3.146;2022-10-16T07:23:54;8.40;;;4.10;;
15921;SDS011;8060;50.948;3.146;2022-10-16T07:26:26;13.27;;;4.73;;
15921;SDS011;8060;50.948;3.146;2022-10-16T07:28:56;8.57;;;5.03;;
15921;SDS011;8060;50.948;3.146;2022-10-16T07:31:25;12.03;;;5.03;;
15921;SDS011;8060;50.948;3.146;2022-10-16T07:33:54;10.17;;;4.77;;
15921;SDS011;8060;50.948;3.146;2022-10-16T07:36:24;6.90;;;4.23;;
15921;SDS011;8060;50.948;3.146;2022-10-16T07:38:53;9.13;;;3.77;;
15921;SDS011;8060;50.948;3.146;2022-10-16T07:41:26;8.23;;;3.73;;
15921;SDS011;8060;50.948;3.146;2022-10-16T07:43:56;9.20;;;4.00;;
15921;SDS011;8060;50.948;3.146;2022-10-16T07:46:26;7.13;;;3.57;;
15921;SDS011;8060;50.948;3.146;2022-10-16T07:48:55;8.03;;;2.97;;
15921;SDS011;8060;50.948;3.146;2022-10-16T07:51:25;7.40;;;2.53;;
15921;SDS011;8060;50.948;3.146;2022-10-16T07:53:54;7.67;;;2.47;;
15921;SDS011;8060;50.948;3.146;2022-10-16T07:56:23;5.17;;;1.93;;
15921;SDS011;8060;50.948;3.146;2022-10-16T07:58:53;9.57;;;2.27;;
15921;SDS011;8060;50.948;3.146;2022-10-16T08:01:23;7.83;;;2.30;;
15921;SDS011;8060;50.948;3.146;2022-10-16T08:03:52;6.07;;;2.10;;
15921;SDS011;8060;50.948;3.146;2022-10-16T08:06:21;5.03;;;1.60;;
15921;SDS011;8060;50.948;3.146;2022-10-16T08:08:53;10.60;;;1.90;;
15921;SDS011;8060;50.948;3.146;2022-10-16T08:11:22;7.73;;;1.70;;
15921;SDS011;8060;50.948;3.146;2022-10-16T08:13:50;7.17;;;1.70;;
15921;SDS011;8060;50.948;3.146;2022-10-16T08:16:20;10.87;;;1.63;;
15921;SDS011;8060;50.948;3.146;2022-10-16T08:18:49;6.40;;;1.87;;
15921;SDS011;8060;50.948;3.146;2022-10-16T08:21:18;6.07;;;1.50;;
15921;SDS011;8060;50.948;3.146;2022-10-16T08:23:49;10.13;;;1.63;;
15921;SDS011;8060;50.948;3.146;2022-10-16T08:26:23;7.87;;;1.50;;
15921;SDS011;8060;50.948;3.146;2022-10-16T08:28:54;4.60;;;1.47;;
15921;SDS011;8060;50.948;3.146;2022-10-16T08:31:23;11.83;;;1.60;;
15921;SDS011;8060;50.948;3.146;2022-10-16T08:33:52;8.97;;;1.47;;
15921;SDS011;8060;50.948;3.146;2022-10-16T08:36:21;8.30;;;1.80;;
15921;SDS011;8060;50.948;3.146;2022-10-16T08:38:49;8.27;;;1.60;;
15921;SDS011;8060;50.948;3.146;2022-10-16T08:41:27;6.57;;;1.70;;
15921;SDS011;8060;50.948;3.146;2022-10-16T08:44:36;6.70;;;1.67;;
15921;SDS011;8060;50.948;3.146;2022-10-16T08:47:22;5.13;;;1.50;;
15921;SDS011;8060;50.948;3.146;2022-10-16T08:49:55;6.77;;;1.80;;
15921;SDS011;8060;50.948;3.146;2022-10-16T08:52:28;9.57;;;1.70;;
15921;SDS011;8060;50.948;3.146;2022-10-16T08:54:58;7.53;;;1.53;;
15921;SDS011;8060;50.948;3.146;2022-10-16T08:57:27;6.30;;;1.43;;
15921;SDS011;8060;50.948;3.146;2022-10-16T08:59:59;9.77;;;1.80;;
15921;SDS011;8060;50.948;3.146;2022-10-16T09:02:34;5.17;;;1.60;;
15921;SDS011;8060;50.948;3.146;2022-10-16T09:05:11;7.67;;;1.70;;
15921;SDS011;8060;50.948;3.146;2022-10-16T09:08:03;5.50;;;1.60;;
15921;SDS011;8060;50.948;3.146;2022-10-16T09:10:43;7.87;;;1.50;;
15921;SDS011;8060;50.948;3.146;2022-10-16T09:13:20;7.33;;;1.47;;
15921;SDS011;8060;50.948;3.146;2022-10-16T09:15:55;6.27;;;1.73;;
15921;SDS011;8060;50.948;3.146;2022-10-16T09:18:29;5.87;;;1.50;;
15921;SDS011;8060;50.948;3.146;2022-10-16T09:21:06;10.00;;;1.90;;
15921;SDS011;8060;50.948;3.146;2022-10-16T09:23:39;6.67;;;1.50;;
15921;SDS011;8060;50.948;3.146;2022-10-16T09:26:09;9.80;;;1.87;;
15921;SDS011;8060;50.948;3.146;2022-10-16T09:28:40;12.20;;;2.10;;
15921;SDS011;8060;50.948;3.146;2022-10-16T09:31:13;10.93;;;1.70;;
15921;SDS011;8060;50.948;3.146;2022-10-16T09:33:45;7.77;;;1.83;;
15921;SDS011;8060;50.948;3.146;2022-10-16T09:36:16;11.63;;;1.70;;
15921;SDS011;8060;50.948;3.146;2022-10-16T09:38:45;9.40;;;1.50;;
15921;SDS011;8060;50.948;3.146;2022-10-16T09:41:15;7.33;;;1.77;;
15921;SDS011;8060;50.948;3.146;2022-10-16T09:43:47;9.37;;;1.70;;
15921;SDS011;8060;50.948;3.146;2022-10-16T09:46:28;9.43;;;1.87;;
15921;SDS011;8060;50.948;3.146;2022-10-16T09:48:58;10.13;;;2.07;;
15921;SDS011;8060;50.948;3.146;2022-10-16T09:51:29;12.87;;;4.60;;
15921;SDS011;8060;50.948;3.146;2022-10-16T09:53:59;9.87;;;2.13;;
15921;SDS011;8060;50.948;3.146;2022-10-16T09:56:29;7.60;;;2.40;;
15921;SDS011;8060;50.948;3.146;2022-10-16T09:59:00;8.93;;;2.70;;
15921;SDS011;8060;50.948;3.146;2022-10-16T10:01:36;15.20;;;6.03;;
15921;SDS011;8060;50.948;3.146;2022-10-16T10:04:06;11.63;;;2.57;;
15921;SDS011;8060;50.948;3.146;2022-10-16T10:06:36;7.20;;;1.37;;
15921;SDS011;8060;50.948;3.146;2022-10-16T10:09:15;8.43;;;1.80;;
15921;SDS011;8060;50.948;3.146;2022-10-16T10:11:46;8.63;;;1.83;;
15921;SDS011;8060;50.948;3.146;2022-10-16T10:19:50;7.13;;;1.60;;
15921;SDS011;8060;50.948;3.146;2022-10-16T10:22:25;8.88;;;2.20;;
15921;SDS011;8060;50.948;3.146;2022-10-16T10:27:46;10.30;;;1.95;;
15921;SDS011;8060;50.948;3.146;2022-10-16T10:30:34;7.55;;;1.63;;
15921;SDS011;8060;50.948;3.146;2022-10-16T10:33:23;6.95;;;1.95;;
15921;SDS011;8060;50.948;3.146;2022-10-16T10:35:58;10.85;;;1.60;;
15921;SDS011;8060;50.948;3.146;2022-10-16T10:38:38;4.35;;;1.48;;
15921;SDS011;8060;50.948;3.146;2022-10-16T10:41:15;9.60;;;2.08;;
15921;SDS011;8060;50.948;3.146;2022-10-16T10:44:03;7.93;;;1.55;;
15921;SDS011;8060;50.948;3.146;2022-10-16T10:46:41;10.27;;;1.88;;
15921;SDS011;8060;50.948;3.146;2022-10-16T10:49:19;7.20;;;1.80;;
15921;SDS011;8060;50.948;3.146;2022-10-16T10:52:09;8.63;;;1.98;;
15921;SDS011;8060;50.948;3.146;2022-10-16T10:54:55;8.32;;;2.00;;
15921;SDS011;8060;50.948;3.146;2022-10-16T10:57:32;5.13;;;1.35;;
15921;SDS011;8060;50.948;3.146;2022-10-16T11:00:08;7.78;;;1.95;;
15921;SDS011;8060;50.948;3.146;2022-10-16T11:02:48;5.38;;;1.65;;
15921;SDS011;8060;50.948;3.146;2022-10-16T11:05:30;7.43;;;2.40;;
15921;SDS011;8060;50.948;3.146;2022-10-16T11:08:08;8.02;;;1.90;;
15921;SDS011;8060;50.948;3.146;2022-10-16T11:10:45;7.85;;;1.92;;
15921;SDS011;8060;50.948;3.146;2022-10-16T11:13:23;10.63;;;2.00;;
15921;SDS011;8060;50.948;3.146;2022-10-16T11:15:57;6.65;;;1.77;;
15921;SDS011;8060;50.948;3.146;2022-10-16T11:18:30;7.13;;;1.83;;
15921;SDS011;8060;50.948;3.146;2022-10-16T11:21:09;6.28;;;1.48;;
15921;SDS011;8060;50.948;3.146;2022-10-16T11:23:41;6.35;;;1.83;;
15921;SDS011;8060;50.948;3.146;2022-10-16T11:26:16;9.73;;;2.17;;
15921;SDS011;8060;50.948;3.146;2022-10-16T11:28:49;6.70;;;1.48;;
15921;SDS011;8060;50.948;3.146;2022-10-16T11:31:22;8.52;;;1.80;;
15921;SDS011;8060;50.948;3.146;2022-10-16T11:33:58;7.53;;;1.67;;
15921;SDS011;8060;50.948;3.146;2022-10-16T11:36:33;7.45;;;1.60;;
15921;SDS011;8060;50.948;3.146;2022-10-16T11:39:11;6.88;;;1.52;;
15921;SDS011;8060;50.948;3.146;2022-10-16T11:41:50;7.93;;;1.65;;
15921;SDS011;8060;50.948;3.146;2022-10-16T11:44:25;8.27;;;1.98;;
15921;SDS011;8060;50.948;3.146;2022-10-16T11:47:26;10.70;;;1.83;;
15921;SDS011;8060;50.948;3.146;2022-10-16T11:50:20;10.48;;;2.00;;
15921;SDS011;8060;50.948;3.146;2022-10-16T11:52:55;7.38;;;1.60;;
15921;SDS011;8060;50.948;3.146;2022-10-16T11:55:31;7.35;;;1.70;;
15921;SDS011;8060;50.948;3.146;2022-10-16T11:58:12;8.95;;;1.58;;
15921;SDS011;8060;50.948;3.146;2022-10-16T12:00:46;9.68;;;1.92;;
15921;SDS011;8060;50.948;3.146;2022-10-16T12:03:21;10.07;;;1.77;;
15921;SDS011;8060;50.948;3.146;2022-10-16T12:05:58;9.40;;;1.90;;
15921;SDS011;8060;50.948;3.146;2022-10-16T12:08:40;10.05;;;1.90;;
15921;SDS011;8060;50.948;3.146;2022-10-16T12:11:22;6.43;;;1.65;;
15921;SDS011;8060;50.948;3.146;2022-10-16T12:14:07;7.55;;;1.77;;
15921;SDS011;8060;50.948;3.146;2022-10-16T12:19:57;6.57;;;1.60;;
15921;SDS011;8060;50.948;3.146;2022-10-16T12:22:27;6.53;;;1.20;;
15921;SDS011;8060;50.948;3.146;2022-10-16T12:24:58;6.32;;;1.40;;
15921;SDS011;8060;50.948;3.146;2022-10-16T12:27:28;3.03;;;1.23;;
15921;SDS011;8060;50.948;3.146;2022-10-16T12:29:59;5.72;;;1.33;;
15921;SDS011;8060;50.948;3.146;2022-10-16T12:32:32;5.95;;;1.50;;
15921;SDS011;8060;50.948;3.146;2022-10-16T12:35:18;5.57;;;1.58;;
15921;SDS011;8060;50.948;3.146;2022-10-16T12:37:49;7.25;;;1.20;;
15921;SDS011;8060;50.948;3.146;2022-10-16T12:40:25;8.73;;;1.52;;
15921;SDS011;8060;50.948;3.146;2022-10-16T12:42:57;7.30;;;1.63;;
15921;SDS011;8060;50.948;3.146;2022-10-16T12:45:29;7.20;;;1.40;;
15921;SDS011;8060;50.948;3.146;2022-10-16T12:47:59;7.30;;;1.20;;
15921;SDS011;8060;50.948;3.146;2022-10-16T12:50:31;6.50;;;1.52;;
15921;SDS011;8060;50.948;3.146;2022-10-16T12:53:02;7.45;;;1.48;;
15921;SDS011;8060;50.948;3.146;2022-10-16T12:55:47;6.47;;;1.73;;
15921;SDS011;8060;50.948;3.146;2022-10-16T12:58:32;6.05;;;1.50;;
15921;SDS011;8060;50.948;3.146;2022-10-16T13:01:17;4.15;;;1.67;;
15921;SDS011;8060;50.948;3.146;2022-10-16T13:03:59;3.97;;;1.60;;
15921;SDS011;8060;50.948;3.146;2022-10-16T13:06:42;7.07;;;1.60;;
15921;SDS011;8060;50.948;3.146;2022-10-16T13:09:19;4.35;;;1.40;;
15921;SDS011;8060;50.948;3.146;2022-10-16T13:12:07;4.25;;;1.55;;
15921;SDS011;8060;50.948;3.146;2022-10-16T13:14:48;6.65;;;1.58;;
15921;SDS011;8060;50.948;3.146;2022-10-16T13:17:29;4.60;;;1.38;;
15921;SDS011;8060;50.948;3.146;2022-10-16T13:20:10;4.68;;;1.13;;
15921;SDS011;8060;50.948;3.146;2022-10-16T13:22:48;5.57;;;1.50;;
15921;SDS011;8060;50.948;3.146;2022-10-16T13:25:25;4.40;;;1.10;;
15921;SDS011;8060;50.948;3.146;2022-10-16T13:27:59;5.72;;;2.08;;
15921;SDS011;8060;50.948;3.146;2022-10-16T13:30:29;4.43;;;1.67;;
15921;SDS011;8060;50.948;3.146;2022-10-16T13:33:00;4.53;;;1.30;;
15921;SDS011;8060;50.948;3.146;2022-10-16T13:35:31;5.50;;;1.90;;
15921;SDS011;8060;50.948;3.146;2022-10-16T13:38:05;5.40;;;1.20;;
15921;SDS011;8060;50.948;3.146;2022-10-16T13:40:47;5.63;;;1.00;;
15921;SDS011;8060;50.948;3.146;2022-10-16T13:43:23;4.13;;;1.00;;
15921;SDS011;8060;50.948;3.146;2022-10-16T13:45:58;1.77;;;0.77;;
15921;SDS011;8060;50.948;3.146;2022-10-16T13:48:30;10.47;;;1.43;;
15921;SDS011;8060;50.948;3.146;2022-10-16T13:51:00;3.53;;;0.80;;
15921;SDS011;8060;50.948;3.146;2022-10-16T13:53:30;7.53;;;1.30;;
15921;SDS011;8060;50.948;3.146;2022-10-16T13:56:00;6.60;;;3.07;;
15921;SDS011;8060;50.948;3.146;2022-10-16T13:58:32;6.20;;;1.80;;
15921;SDS011;8060;50.948;3.146;2022-10-16T14:01:01;5.70;;;1.30;;
15921;SDS011;8060;50.948;3.146;2022-10-16T14:03:33;4.33;;;1.10;;
15921;SDS011;8060;50.948;3.146;2022-10-16T14:06:03;3.77;;;0.80;;
15921;SDS011;8060;50.948;3.146;2022-10-16T14:08:35;3.47;;;0.97;;
15921;SDS011;8060;50.948;3.146;2022-10-16T14:11:03;4.43;;;1.20;;
15921;SDS011;8060;50.948;3.146;2022-10-16T14:13:34;2.40;;;0.97;;
15921;SDS011;8060;50.948;3.146;2022-10-16T14:16:06;4.67;;;1.23;;
15921;SDS011;8060;50.948;3.146;2022-10-16T14:18:37;5.23;;;0.90;;
15921;SDS011;8060;50.948;3.146;2022-10-16T14:21:07;4.83;;;2.93;;
15921;SDS011;8060;50.948;3.146;2022-10-16T14:23:42;11.83;;;6.87;;
15921;SDS011;8060;50.948;3.146;2022-10-16T14:26:15;10.70;;;2.00;;
15921;SDS011;8060;50.948;3.146;2022-10-16T14:28:46;2.80;;;0.90;;
15921;SDS011;8060;50.948;3.146;2022-10-16T14:31:29;5.43;;;0.83;;
15921;SDS011;8060;50.948;3.146;2022-10-16T14:33:59;6.40;;;1.10;;
15921;SDS011;8060;50.948;3.146;2022-10-16T14:36:28;3.20;;;0.80;;
15921;SDS011;8060;50.948;3.146;2022-10-16T14:38:59;3.03;;;0.90;;
15921;SDS011;8060;50.948;3.146;2022-10-16T14:41:29;3.00;;;0.77;;
15921;SDS011;8060;50.948;3.146;2022-10-16T14:44:02;6.17;;;1.07;;
15921;SDS011;8060;50.948;3.146;2022-10-16T14:46:33;3.40;;;0.93;;
15921;SDS011;8060;50.948;3.146;2022-10-16T14:49:03;5.60;;;2.20;;
15921;SDS011;8060;50.948;3.146;2022-10-16T14:51:41;2.90;;;0.97;;
15921;SDS011;8060;50.948;3.146;2022-10-16T14:54:11;6.23;;;1.37;;
15921;SDS011;8060;50.948;3.146;2022-10-16T14:56:45;5.80;;;1.30;;
15921;SDS011;8060;50.948;3.146;2022-10-16T14:59:18;4.10;;;1.43;;
15921;SDS011;8060;50.948;3.146;2022-10-16T15:01:50;6.33;;;1.90;;
15921;SDS011;8060;50.948;3.146;2022-10-16T15:04:18;12.53;;;4.87;;
15921;SDS011;8060;50.948;3.146;2022-10-16T15:06:46;40.03;;;20.90;;
15921;SDS011;8060;50.948;3.146;2022-10-16T15:09:15;33.70;;;17.33;;
15921;SDS011;8060;50.948;3.146;2022-10-16T15:11:43;32.40;;;18.80;;
15921;SDS011;8060;50.948;3.146;2022-10-16T15:14:12;5.47;;;2.70;;
15921;SDS011;8060;50.948;3.146;2022-10-16T15:16:47;4.87;;;1.83;;
15921;SDS011;8060;50.948;3.146;2022-10-16T15:19:15;6.23;;;1.40;;
15921;SDS011;8060;50.948;3.146;2022-10-16T15:21:43;10.43;;;1.70;;
15921;SDS011;8060;50.948;3.146;2022-10-16T15:24:13;5.77;;;1.60;;
